createdAt,value
2023-08-10T00:01:51.773Z,20
2023-08-10T00:04:22.975Z,23
2023-08-10T00:06:53.756Z,21
2023-08-10T00:09:25.718Z,20
2023-08-10T00:11:58.492Z,15
2023-08-10T00:14:30.550Z,16
2023-08-10T00:17:01.888Z,19
2023-08-10T00:19:32.670Z,19
2023-08-10T00:22:03.497Z,22
2023-08-10T00:24:34.292Z,17
2023-08-10T00:27:07.858Z,17
2023-08-10T00:29:38.770Z,15
2023-08-10T00:32:11.539Z,17
2023-08-10T00:34:43.088Z,15
2023-08-10T00:37:13.726Z,19
2023-08-10T00:39:47.050Z,17
2023-08-10T00:42:18.475Z,22
2023-08-10T00:44:49.981Z,20
2023-08-10T00:47:20.412Z,21
2023-08-10T00:49:53.308Z,25
2023-08-10T00:52:25.143Z,22
2023-08-10T00:54:58.632Z,24
2023-08-10T00:57:29.559Z,21
2023-08-10T01:00:00.140Z,25
2023-08-10T01:02:30.545Z,23
2023-08-10T01:05:00.166Z,24
2023-08-10T01:07:32.400Z,13
2023-08-10T01:10:04.139Z,23
2023-08-10T01:12:34.863Z,23
2023-08-10T01:15:05.662Z,25
2023-08-10T01:17:36.482Z,23
2023-08-10T01:20:08.217Z,27
2023-08-10T01:22:39.978Z,26
2023-08-10T01:25:11.269Z,21
2023-08-10T01:27:42.096Z,23
2023-08-10T01:30:13.111Z,25
2023-08-10T01:32:44.336Z,26
2023-08-10T01:35:15.244Z,24
2023-08-10T01:37:46.308Z,23
2023-08-10T01:40:17.649Z,19
2023-08-10T01:42:48.675Z,19
2023-08-10T01:45:20.032Z,22
2023-08-10T01:47:50.888Z,20
2023-08-10T01:50:22.621Z,16
2023-08-10T01:52:56.960Z,19
2023-08-10T01:55:27.614Z,13
2023-08-10T01:57:57.268Z,20
2023-08-10T02:00:30.249Z,17
2023-08-10T02:03:04.417Z,18
2023-08-10T02:05:35.789Z,16
2023-08-10T02:08:07.602Z,16
2023-08-10T02:10:39.748Z,18
2023-08-10T02:13:13.143Z,12
2023-08-10T02:15:43.750Z,23
2023-08-10T02:18:15.069Z,21
2023-08-10T02:20:48.136Z,16
2023-08-10T02:23:19.250Z,17
2023-08-10T02:25:50.767Z,14
2023-08-10T02:28:25.983Z,18
2023-08-10T02:30:56.960Z,17
2023-08-10T02:33:30.096Z,16
2023-08-10T02:36:02.341Z,16
2023-08-10T02:38:34.802Z,21
2023-08-10T02:41:05.420Z,17
2023-08-10T02:43:36.467Z,19
2023-08-10T02:46:07.614Z,24
2023-08-10T02:48:39.127Z,14
2023-08-10T02:51:12.535Z,18
2023-08-10T02:53:43.551Z,16
2023-08-10T02:56:14.836Z,16
2023-08-10T02:58:45.896Z,14
2023-08-10T03:01:18.196Z,14
2023-08-10T03:03:48.804Z,17
2023-08-10T03:06:19.674Z,13
2023-08-10T03:08:50.700Z,14
2023-08-10T03:11:23.117Z,15
2023-08-10T03:13:54.839Z,14
2023-08-10T03:16:26.948Z,19
2023-08-10T03:18:58.379Z,12
2023-08-10T03:21:29.847Z,12
2023-08-10T03:24:05.723Z,14
2023-08-10T03:26:38.033Z,17
2023-08-10T03:29:09.181Z,14
2023-08-10T03:31:40.273Z,15
2023-08-10T03:34:14.599Z,15
2023-08-10T03:36:46.725Z,16
2023-08-10T03:39:18.661Z,14
2023-08-10T03:41:49.766Z,13
2023-08-10T03:44:22.367Z,12
2023-08-10T03:46:54.122Z,12
2023-08-10T03:49:27.248Z,12
2023-08-10T03:52:00.202Z,13
2023-08-10T03:54:32.481Z,12
2023-08-10T03:57:03.418Z,13
2023-08-10T03:59:34.957Z,12
2023-08-10T04:02:06.411Z,13
2023-08-10T04:04:38.346Z,13
2023-08-10T04:07:08.956Z,13
2023-08-10T04:09:41.254Z,12
2023-08-10T04:12:13.497Z,15
2023-08-10T04:14:45.596Z,12
2023-08-10T04:17:15.022Z,13
2023-08-10T04:19:47.137Z,15
2023-08-10T04:22:18.251Z,15
2023-08-10T04:24:49.687Z,12
2023-08-10T04:27:21.125Z,16
2023-08-10T04:29:55.279Z,12
2023-08-10T04:32:26.248Z,15
2023-08-10T04:34:58.445Z,12
2023-08-10T04:37:27.724Z,16
2023-08-10T04:39:58.379Z,15
2023-08-10T04:42:31.164Z,18
2023-08-10T04:45:02.440Z,30
2023-08-10T04:47:34.510Z,15
2023-08-10T04:50:06.693Z,37
2023-08-10T04:52:37.497Z,22
2023-08-10T04:55:08.365Z,19
2023-08-10T04:57:39.715Z,15
2023-08-10T05:00:12.747Z,15
2023-08-10T05:02:48.642Z,15
2023-08-10T05:05:19.220Z,12
2023-08-10T05:07:51.602Z,15
2023-08-10T05:10:22.763Z,15
2023-08-10T05:12:52.018Z,17
2023-08-10T05:15:22.903Z,15
2023-08-10T05:17:53.799Z,15
2023-08-10T05:20:25.303Z,12
2023-08-10T05:22:56.789Z,15
2023-08-10T05:25:28.588Z,16
2023-08-10T05:27:59.702Z,15
2023-08-10T05:30:32.433Z,17
2023-08-10T05:33:03.986Z,15
2023-08-10T05:35:34.678Z,13
2023-08-10T05:38:06.261Z,17
2023-08-10T05:40:37.355Z,13
2023-08-10T05:43:10.383Z,9
2023-08-10T05:45:41.484Z,21
2023-08-10T05:48:14.756Z,21
2023-08-10T05:50:46.570Z,14
2023-08-10T05:53:17.569Z,15
2023-08-10T05:55:48.216Z,20
2023-08-10T05:58:21.542Z,19
2023-08-10T06:00:57.129Z,16
2023-08-10T06:03:30.167Z,19
2023-08-10T06:06:01.400Z,20
2023-08-10T06:08:32.805Z,16
2023-08-10T06:11:04.460Z,19
2023-08-10T06:13:39.262Z,20
2023-08-10T06:16:10.474Z,13
2023-08-10T06:18:43.989Z,14
2023-08-10T06:21:20.536Z,16
2023-08-10T06:23:56.390Z,15
2023-08-10T06:26:28.784Z,16
2023-08-10T06:29:04.518Z,18
2023-08-10T06:34:34.891Z,8
2023-08-10T06:37:05.477Z,16
2023-08-10T06:39:35.756Z,17
2023-08-10T06:42:06.856Z,17
2023-08-10T06:44:36.103Z,23
2023-08-10T06:47:08.244Z,19
2023-08-10T06:49:38.706Z,19
2023-08-10T06:52:10.353Z,20
2023-08-10T06:54:42.658Z,23
2023-08-10T06:57:13.935Z,22
2023-08-10T07:04:46.980Z,21
2023-08-10T07:07:19.537Z,21
2023-08-10T07:09:51.362Z,16
2023-08-10T07:12:22.847Z,23
2023-08-10T07:14:55.148Z,14
2023-08-10T07:17:26.202Z,16
2023-08-10T07:19:57.555Z,16
2023-08-10T07:22:26.947Z,24
2023-08-10T07:24:57.593Z,19
2023-08-10T07:30:00.472Z,14
2023-08-10T07:32:31.671Z,24
2023-08-10T07:35:05.683Z,31
2023-08-10T07:37:37.614Z,23
2023-08-10T07:40:09.128Z,19
2023-08-10T07:42:40.325Z,19
2023-08-10T07:45:17.216Z,14
2023-08-10T07:47:48.049Z,22
2023-08-10T07:50:18.858Z,19
2023-08-10T07:52:49.807Z,17
2023-08-10T07:55:23.901Z,20
2023-08-10T07:57:54.426Z,24
2023-08-10T08:00:25.297Z,23
2023-08-10T08:02:54.406Z,25
2023-08-10T08:05:24.666Z,17
2023-08-10T08:07:55.635Z,18
2023-08-10T08:10:26.393Z,19
2023-08-10T08:12:56.865Z,19
2023-08-10T08:15:27.829Z,19
2023-08-10T08:18:05.355Z,12
2023-08-10T08:20:36.720Z,16
2023-08-10T08:23:08.530Z,18
2023-08-10T08:25:40.698Z,16
2023-08-10T08:28:12.712Z,20
2023-08-10T08:30:46.587Z,14
2023-08-10T08:33:16.983Z,19
2023-08-10T08:35:47.950Z,19
2023-08-10T08:38:18.342Z,17
2023-08-10T08:40:48.920Z,16
2023-08-10T08:43:20.878Z,18
2023-08-10T08:45:54.445Z,15
2023-08-10T08:48:25.308Z,17
2023-08-10T08:50:55.966Z,19
2023-08-10T08:53:28.106Z,16
2023-08-10T08:55:58.872Z,19
2023-08-10T08:58:29.602Z,17
2023-08-10T09:01:00.288Z,17
2023-08-10T09:03:31.610Z,20
2023-08-10T09:06:02.264Z,19
2023-08-10T09:08:33.585Z,18
2023-08-10T09:11:03.925Z,16
2023-08-10T09:13:36.514Z,16
2023-08-10T09:16:09.200Z,16
2023-08-10T09:18:39.928Z,19
2023-08-10T09:21:08.807Z,20
2023-08-10T09:23:40.194Z,20
2023-08-10T09:26:13.491Z,17
2023-08-10T09:28:44.206Z,19
2023-08-10T09:31:15.826Z,19
2023-08-10T09:33:46.228Z,16
2023-08-10T09:36:16.973Z,16
2023-08-10T09:38:49.006Z,18
2023-08-10T09:41:20.770Z,19
2023-08-10T09:43:52.630Z,13
2023-08-10T09:46:26.185Z,17
2023-08-10T09:48:56.608Z,19
2023-08-10T09:51:26.533Z,20
2023-08-10T09:53:55.515Z,22
2023-08-10T09:56:26.891Z,19
2023-08-10T09:58:57.307Z,17
2023-08-10T10:01:28.625Z,20
2023-08-10T10:03:59.531Z,19
2023-08-10T10:06:31.369Z,19
2023-08-10T10:09:09.636Z,14
2023-08-10T10:11:39.919Z,16
2023-08-10T10:14:11.216Z,16
2023-08-10T10:16:42.827Z,22
2023-08-10T10:19:15.145Z,21
2023-08-10T10:21:47.743Z,16
2023-08-10T10:24:20.350Z,19
2023-08-10T10:26:51.872Z,24
2023-08-10T10:29:22.739Z,17
2023-08-10T10:31:55.614Z,20
2023-08-10T10:34:29.321Z,17
2023-08-10T10:36:59.953Z,19
2023-08-10T10:39:31.140Z,21
2023-08-10T10:42:03.970Z,38
2023-08-10T10:44:36.686Z,23
2023-08-10T10:47:06.994Z,19
2023-08-10T10:49:37.909Z,15
2023-08-10T10:52:15.078Z,15
2023-08-10T10:54:47.358Z,18
2023-08-10T10:57:22.111Z,14
2023-08-10T10:59:52.323Z,17
2023-08-10T11:02:28.857Z,10
2023-08-10T11:05:02.419Z,13
2023-08-10T11:07:32.761Z,19
2023-08-10T11:10:05.926Z,15
2023-08-10T11:12:36.558Z,13
2023-08-10T11:15:16.019Z,9
2023-08-10T11:17:49.813Z,17
2023-08-10T11:20:27.763Z,12
2023-08-10T11:23:01.469Z,16
2023-08-10T11:25:33.750Z,11
2023-08-10T11:28:07.593Z,8
2023-08-10T11:30:43.244Z,12
2023-08-10T11:33:13.701Z,14
2023-08-10T11:35:44.199Z,16
2023-08-10T11:38:16.538Z,12
2023-08-10T11:40:46.472Z,13
2023-08-10T11:43:17.585Z,15
2023-08-10T11:45:49.297Z,11
2023-08-10T11:48:22.133Z,14
2023-08-10T11:50:53.879Z,12
2023-08-10T11:53:24.757Z,14
2023-08-10T11:55:56.364Z,15
2023-08-10T11:58:26.745Z,8
2023-08-10T12:00:58.400Z,13
2023-08-10T12:03:35.262Z,13
2023-08-10T12:06:00.751Z,15
2023-08-10T12:08:41.386Z,8
2023-08-10T12:11:19.576Z,6
2023-08-10T12:13:50.741Z,12
2023-08-10T12:16:21.147Z,15
2023-08-10T12:18:52.431Z,15
2023-08-10T12:21:22.817Z,13
2023-08-10T12:23:52.922Z,17
2023-08-10T12:26:23.363Z,13
2023-08-10T12:28:55.744Z,16
2023-08-10T12:31:25.260Z,16
2023-08-10T12:33:55.722Z,19
2023-08-10T12:36:26.361Z,19
2023-08-10T12:38:57.702Z,16
2023-08-10T12:41:28.484Z,17
2023-08-10T12:43:59.498Z,18
2023-08-10T12:46:30.020Z,17
2023-08-10T12:49:02.306Z,16
2023-08-10T12:51:36.258Z,12
2023-08-10T12:54:06.765Z,15
2023-08-10T12:56:37.726Z,20
2023-08-10T12:59:08.944Z,18
2023-08-10T13:01:41.206Z,55
2023-08-10T13:04:12.203Z,97
2023-08-10T13:06:42.606Z,47
2023-08-10T13:09:13.083Z,92
2023-08-10T13:11:43.686Z,162
2023-08-10T13:14:16.387Z,50
2023-08-10T13:16:46.791Z,69
2023-08-10T13:19:18.182Z,64
2023-08-10T13:21:50.119Z,50
2023-08-10T13:24:20.416Z,59
2023-08-10T13:26:55.847Z,22
2023-08-10T13:29:27.486Z,32
2023-08-10T13:32:00.662Z,24
2023-08-10T13:34:29.600Z,42
2023-08-10T13:36:58.550Z,24
2023-08-10T13:39:33.911Z,28
2023-08-10T13:42:09.890Z,36
2023-08-10T13:44:39.869Z,28
2023-08-10T13:47:11.447Z,35
2023-08-10T13:49:53.401Z,26
2023-08-10T13:52:13.689Z,27
2023-08-10T13:54:44.450Z,19
2023-08-10T13:57:16.888Z,27
2023-08-10T13:59:48.621Z,22
2023-08-10T14:02:18.827Z,19
2023-08-10T14:04:51.076Z,16
2023-08-10T14:07:21.603Z,13
2023-08-10T14:09:53.514Z,22
2023-08-10T14:12:24.078Z,16
2023-08-10T14:14:55.380Z,20
2023-08-10T14:17:25.758Z,23
2023-08-10T14:19:57.016Z,20
2023-08-10T14:22:27.375Z,19
2023-08-10T14:25:03.050Z,14
2023-08-10T14:27:32.650Z,19
2023-08-10T14:30:04.523Z,16
2023-08-10T14:32:35.190Z,17
2023-08-10T14:35:07.880Z,20
2023-08-10T14:37:38.084Z,16
2023-08-10T14:40:08.831Z,13
2023-08-10T14:42:40.094Z,14
2023-08-10T14:45:10.873Z,12
2023-08-10T14:47:42.756Z,16
2023-08-10T14:50:15.570Z,12
2023-08-10T14:52:46.500Z,15
2023-08-10T14:55:21.622Z,16
2023-08-10T14:57:46.627Z,10
2023-08-10T15:00:16.981Z,13
2023-08-10T15:02:49.653Z,12
2023-08-10T15:05:34.070Z,8
2023-08-10T15:08:06.924Z,11
2023-08-10T15:10:41.456Z,8
2023-08-10T15:13:12.912Z,12
2023-08-10T15:15:52.200Z,6
2023-08-10T15:18:24.710Z,12
2023-08-10T15:20:54.652Z,15
2023-08-10T15:23:39.909Z,18
2023-08-10T15:25:56.777Z,21
2023-08-10T15:34:29.970Z,21
2023-08-10T15:36:59.931Z,20
2023-08-10T15:39:28.862Z,25
2023-08-10T15:42:00.051Z,41
2023-08-10T15:44:34.575Z,28
2023-08-10T15:47:04.571Z,24
2023-08-10T15:49:37.162Z,18
2023-08-10T15:52:07.278Z,16
2023-08-10T15:54:37.977Z,18
2023-08-10T15:57:09.536Z,17
2023-08-10T15:59:40.542Z,16
2023-08-10T16:02:09.189Z,21
2023-08-10T16:04:41.457Z,14
2023-08-10T16:07:13.235Z,20
2023-08-10T16:09:44.390Z,16
2023-08-10T16:12:20.122Z,14
2023-08-10T16:14:48.732Z,23
2023-08-10T16:17:25.552Z,14
2023-08-10T16:20:03.230Z,20
2023-08-10T16:25:19.231Z,12
2023-08-10T16:27:50.260Z,18
2023-08-10T16:30:23.660Z,19
2023-08-10T16:32:53.424Z,18
2023-08-10T16:35:31.888Z,20
2023-08-10T16:38:12.145Z,19
2023-08-10T16:40:52.808Z,17
2023-08-10T16:43:28.472Z,20
2023-08-10T16:45:58.255Z,28
2023-08-10T16:48:28.958Z,21
2023-08-10T16:51:10.628Z,21
2023-08-10T16:53:40.776Z,29
2023-08-10T16:56:10.868Z,30
2023-08-10T16:58:40.880Z,25
2023-08-10T17:01:14.453Z,24
2023-08-10T17:03:45.557Z,24
2023-08-10T17:06:19.887Z,24
2023-08-10T17:08:50.005Z,25
2023-08-10T17:11:20.789Z,28
2023-08-10T17:13:53.370Z,21
2023-08-10T17:16:23.317Z,24
2023-08-10T17:18:57.818Z,23
2023-08-10T17:21:27.631Z,24
2023-08-10T17:23:56.529Z,21
2023-08-10T17:26:28.427Z,28
2023-08-10T17:29:03.410Z,27
2023-08-10T17:31:31.440Z,26
2023-08-10T17:34:01.525Z,32
2023-08-10T17:36:30.838Z,22
2023-08-10T17:39:02.930Z,28
2023-08-10T17:41:39.398Z,18
2023-08-10T17:44:11.017Z,24
2023-08-10T17:46:40.806Z,25
2023-08-10T17:49:12.710Z,32
2023-08-10T17:51:44.039Z,28
2023-08-10T17:54:14.920Z,26
2023-08-10T17:56:53.925Z,20
2023-08-10T17:59:25.669Z,36
2023-08-10T18:01:58.518Z,25
2023-08-10T18:04:34.858Z,24
2023-08-10T18:07:04.883Z,20
2023-08-10T18:09:34.965Z,25
2023-08-10T18:12:06.161Z,26
2023-08-10T18:14:36.707Z,24
2023-08-10T18:17:09.982Z,25
2023-08-10T18:19:41.629Z,34
2023-08-10T18:22:21.293Z,30
2023-08-10T18:24:59.014Z,34
2023-08-10T18:27:34.593Z,41
2023-08-10T18:30:07.997Z,24
2023-08-10T18:32:38.550Z,29
2023-08-10T18:35:16.685Z,24
2023-08-10T18:37:47.376Z,30
2023-08-10T18:40:19.052Z,48
2023-08-10T18:42:59.249Z,40
2023-08-10T18:45:29.282Z,25
2023-08-10T18:48:01.055Z,36
2023-08-10T18:50:30.918Z,39
2023-08-10T18:53:02.966Z,41
2023-08-10T18:55:34.663Z,52
2023-08-10T18:58:05.779Z,40
2023-08-10T19:00:36.485Z,29
2023-08-10T19:03:05.458Z,44
2023-08-10T19:05:36.046Z,43
2023-08-10T19:08:07.686Z,31
2023-08-10T19:10:38.588Z,29
2023-08-10T19:13:09.376Z,28
2023-08-10T19:15:39.911Z,40
2023-08-10T19:18:11.070Z,40
2023-08-10T19:20:42.748Z,41
2023-08-10T19:23:13.215Z,32
2023-08-10T19:25:45.774Z,36
2023-08-10T19:28:16.691Z,42
2023-08-10T19:30:48.540Z,42
2023-08-10T19:33:20.992Z,41
2023-08-10T19:35:51.488Z,35
2023-08-10T19:38:26.201Z,38
2023-08-10T19:41:00.039Z,37
2023-08-10T19:43:33.395Z,41
2023-08-10T19:46:04.506Z,36
2023-08-10T19:48:39.111Z,30
2023-08-10T19:51:10.672Z,32
2023-08-10T19:53:41.276Z,37
2023-08-10T19:56:10.237Z,36
2023-08-10T19:58:42.296Z,30
2023-08-10T20:01:14.119Z,24
2023-08-10T20:03:43.243Z,27
2023-08-10T20:06:13.939Z,25
2023-08-10T20:08:50.294Z,28
2023-08-10T20:11:19.610Z,32
2023-08-10T20:13:50.040Z,31
2023-08-10T20:16:21.841Z,37
2023-08-10T20:18:53.122Z,35
2023-08-10T20:21:24.334Z,26
2023-08-10T20:23:55.457Z,30
2023-08-10T20:26:24.533Z,36
2023-08-10T20:28:56.222Z,33
2023-08-10T20:31:27.055Z,33
2023-08-10T20:33:56.279Z,35
2023-08-10T20:36:25.366Z,36
2023-08-10T20:38:56.060Z,32
2023-08-10T20:41:29.790Z,29
2023-08-10T20:44:01.783Z,28
2023-08-10T20:46:30.954Z,25
2023-08-10T20:49:05.596Z,36
2023-08-10T20:51:36.904Z,37
2023-08-10T20:54:05.963Z,29
2023-08-10T20:56:37.847Z,24
2023-08-10T20:59:08.161Z,31
2023-08-10T21:01:39.261Z,24
2023-08-10T21:04:10.332Z,17
2023-08-10T21:06:40.757Z,24
2023-08-10T21:09:11.923Z,26
2023-08-10T21:11:44.602Z,17
2023-08-10T21:14:22.031Z,20
2023-08-10T21:16:52.374Z,22
2023-08-10T21:19:22.595Z,23
2023-08-10T21:21:56.050Z,26
2023-08-10T21:24:28.525Z,30
2023-08-10T21:27:01.263Z,32
2023-08-10T21:29:32.040Z,32
2023-08-10T21:32:06.039Z,35
2023-08-10T21:34:37.379Z,27
2023-08-10T21:37:08.308Z,35
2023-08-10T21:39:42.058Z,27
2023-08-10T21:42:11.426Z,25
2023-08-10T21:44:42.593Z,25
2023-08-10T21:47:15.334Z,31
2023-08-10T21:49:44.611Z,30
2023-08-10T21:52:15.415Z,24
2023-08-10T21:54:47.179Z,27
2023-08-10T21:57:18.254Z,28
2023-08-10T21:59:49.759Z,27
2023-08-10T22:02:22.171Z,25
2023-08-10T22:04:53.940Z,28
2023-08-10T22:07:32.081Z,24
2023-08-10T22:10:06.185Z,28
2023-08-10T22:12:36.420Z,27
2023-08-10T22:15:05.695Z,29
2023-08-10T22:17:37.847Z,30
2023-08-10T22:20:08.930Z,26
2023-08-10T22:22:43.334Z,25
2023-08-10T22:25:10.679Z,28
2023-08-10T22:27:39.748Z,29
2023-08-10T22:30:11.033Z,29
2023-08-10T22:32:45.121Z,24
2023-08-10T22:35:15.851Z,28
2023-08-10T22:37:46.379Z,31
2023-08-10T22:40:16.991Z,24
2023-08-10T22:42:47.641Z,31
2023-08-10T22:45:18.719Z,27
2023-08-10T22:47:49.486Z,29
2023-08-10T22:50:20.198Z,29
2023-08-10T22:52:49.289Z,32
2023-08-10T22:55:20.008Z,24
2023-08-10T22:57:49.265Z,31
2023-08-10T23:00:19.780Z,41
2023-08-10T23:02:53.349Z,35
2023-08-10T23:05:25.434Z,28
2023-08-10T23:07:57.280Z,28
2023-08-10T23:10:28.320Z,26
2023-08-10T23:12:59.624Z,26
2023-08-10T23:15:30.664Z,24
2023-08-10T23:18:02.171Z,24
2023-08-10T23:20:35.291Z,24
2023-08-10T23:23:05.992Z,29
2023-08-10T23:25:37.865Z,30
2023-08-10T23:28:08.724Z,42
2023-08-10T23:30:39.833Z,30
2023-08-10T23:33:11.772Z,27
2023-08-10T23:35:43.641Z,27
2023-08-10T23:38:14.390Z,31
2023-08-10T23:40:45.981Z,24
2023-08-10T23:43:16.606Z,29
2023-08-10T23:45:48.474Z,22
2023-08-10T23:48:20.700Z,28
2023-08-10T23:50:52.159Z,27
2023-08-10T23:53:23.143Z,23
2023-08-10T23:55:55.065Z,30
2023-08-10T23:58:37.971Z,28
